Willow Grove, PA (19090)

3:09 PM EDT on April 23, 2018 (GMT -0400)
Willow Grove Weather Center | | Change Station

Elev 440 ft 40.14 °N, 75.11 °W | Updated 3 minutes ago

Clear
Clear
68.5 °F
Feels Like 68.5 °F
N
2.0
Wind Variable Wind from SSE
Gusts 5.0 mph

Today
High -- | Low -- °F
--% Chance of Precip.
Yesterday
High -- | Low -- °F
Precip. -- in
Pressure 30.43 in
Visibility 10.0 miles
Clouds Clear
Dew Point 29 °F
Humidity 23%
Rainfall 0.00 in
Snow Depth Not available.
6:10 AM 7:47 PM
First Quarter, 60% visible
METAR KPNE 231854Z 09007KT 10SM CLR 22/M01 A3043 RMK AO2 SLP302 T02171006
Pressure 30.43 in
Visibility 10.0 miles
Clouds Clear
Dew Point 29 °F
Humidity 23%
Rainfall 0.00 in
Snow Depth Not available.
6:10 AM 7:47 PM
First Quarter, 60% visible
METAR KPNE 231854Z 09007KT 10SM CLR 22/M01 A3043 RMK AO2 SLP302 T02171006

Get Severe Weather Alerts

Thanks for signing up!

Be on the lookout for a verification email in your inbox.

You'll start receiving the daily forecast at 6 AM.

×

10-Day Weather Forecast

Almanac

Astronomy

Apr. 23, 2018 Rise Set
Actual Time
Civil Twilight
Nautical Twilight
Astronomical Twilight
Moon
Length of Visible Light
Length of Day
Tomorrow will be .
, % of the Moon is Illuminated

Today's Extremes

State Highs State Lows

Community

WunderPhotos

Category 6

Welcome to Category 6. This is the collective home for Weather Underground's featured writeups by Dr. Jeff Masters (right), Bob Henson (left), Chris Burt, and other regular contributors.

Nearby

Air Quality

  Air Quality AQ Index Pollutant
Not available.

Snow Depth

Station Depth Elevation

Earthquake Activity

City Distance Mag. Time & Date
Minimum magnitude displayed is 2.5.

Coastal Water Temperatures

Place Temperature

Stations

Nearby Weather Stations

Station Location Temp. Windchill Dew Point Humidity Wind Precip. Elev Updated Type
                   

Watches & Warnings

There are currently no watches in effect.